createdAt,value
2022-11-21T00:00:40.279Z,0.00
2022-11-21T00:01:40.249Z,0.00
2022-11-21T00:02:40.256Z,0.00
2022-11-21T00:03:40.259Z,0.00
2022-11-21T00:04:40.260Z,0.00
2022-11-21T00:05:40.270Z,0.00
2022-11-21T00:06:40.259Z,0.00
2022-11-21T00:07:41.326Z,0.00
2022-11-21T00:08:40.280Z,0.00
2022-11-21T00:09:41.024Z,0.00
2022-11-21T00:10:40.210Z,0.00
2022-11-21T00:11:42.137Z,0.00
2022-11-21T00:12:40.403Z,0.00
2022-11-21T00:13:41.046Z,0.00
2022-11-21T00:14:41.610Z,0.00
2022-11-21T00:15:40.223Z,0.00
2022-11-21T00:16:41.044Z,0.00
2022-11-21T00:17:41.254Z,0.00
2022-11-21T00:18:41.347Z,0.00
2022-11-21T00:19:40.097Z,0.00
2022-11-21T00:20:40.124Z,0.00
2022-11-21T00:21:40.138Z,0.00
2022-11-21T00:22:41.574Z,0.00
2022-11-21T00:23:40.077Z,0.00
2022-11-21T00:24:40.038Z,0.00
2022-11-21T00:25:40.039Z,0.00
2022-11-21T00:26:40.088Z,0.00
2022-11-21T00:27:40.082Z,0.00
2022-11-21T00:28:40.085Z,0.00
2022-11-21T00:29:40.061Z,0.00
2022-11-21T00:30:40.013Z,0.00
2022-11-21T00:31:40.029Z,0.00
2022-11-21T00:32:40.076Z,0.00
2022-11-21T00:33:40.014Z,0.00
2022-11-21T00:34:40.093Z,0.00
2022-11-21T00:35:40.042Z,0.00
2022-11-21T00:36:40.467Z,0.00
2022-11-21T00:37:39.973Z,0.00
2022-11-21T00:38:40.080Z,0.00
2022-11-21T00:39:40.142Z,0.00
2022-11-21T00:40:40.051Z,0.00
2022-11-21T00:41:40.432Z,0.00
2022-11-21T00:42:40.432Z,0.00
2022-11-21T00:43:39.975Z,0.00
2022-11-21T00:44:40.040Z,0.00
2022-11-21T00:45:39.973Z,0.00
2022-11-21T00:46:39.993Z,0.00
2022-11-21T00:47:40.723Z,0.00
2022-11-21T00:48:40.432Z,0.00
2022-11-21T00:49:40.696Z,0.00
2022-11-21T00:50:41.432Z,0.00
2022-11-21T00:52:12.199Z,0.00
2022-11-21T00:52:39.814Z,0.00
2022-11-21T00:53:39.827Z,0.00
2022-11-21T00:54:40.633Z,0.00
2022-11-21T00:55:39.749Z,0.00
2022-11-21T00:56:39.771Z,0.00
2022-11-21T00:57:39.733Z,0.00
2022-11-21T00:58:39.760Z,0.00
2022-11-21T00:59:39.726Z,0.00
2022-11-21T01:00:39.813Z,0.00
2022-11-21T01:01:39.741Z,0.00
2022-11-21T01:02:39.736Z,0.00
2022-11-21T01:04:13.076Z,0.00
2022-11-21T01:04:39.696Z,0.00
2022-11-21T01:05:39.681Z,0.00
2022-11-21T01:06:39.673Z,0.00
2022-11-21T01:07:39.741Z,0.00
2022-11-21T01:08:39.714Z,0.00
2022-11-21T01:09:39.708Z,0.00
2022-11-21T01:10:39.653Z,0.00
2022-11-21T01:11:39.628Z,0.00
2022-11-21T01:12:39.634Z,0.00
2022-11-21T01:13:39.812Z,0.00
2022-11-21T01:14:39.710Z,0.00
2022-11-21T01:15:39.607Z,0.00
2022-11-21T01:16:39.578Z,0.00
2022-11-21T01:17:39.592Z,0.00
2022-11-21T01:18:39.638Z,0.00
2022-11-21T01:19:39.582Z,0.00
2022-11-21T01:20:39.555Z,0.00
2022-11-21T01:21:39.556Z,0.00
2022-11-21T01:22:39.577Z,0.00
2022-11-21T01:23:39.567Z,0.00
2022-11-21T01:24:39.560Z,0.00
2022-11-21T01:25:39.572Z,0.00
2022-11-21T01:26:39.529Z,0.00
2022-11-21T01:27:39.532Z,0.00
2022-11-21T01:28:39.534Z,0.00
2022-11-21T01:29:39.512Z,0.00
2022-11-21T01:30:39.504Z,0.00
2022-11-21T01:31:39.478Z,0.00
2022-11-21T01:32:39.508Z,0.00
2022-11-21T01:33:39.448Z,0.00
2022-11-21T01:34:39.505Z,0.00
2022-11-21T01:35:39.453Z,0.00
2022-11-21T01:36:39.498Z,0.00
2022-11-21T01:37:39.476Z,0.00
2022-11-21T01:38:39.424Z,0.00
2022-11-21T01:39:39.582Z,0.00
2022-11-21T01:40:39.483Z,0.00
2022-11-21T01:41:39.486Z,0.00
2022-11-21T01:42:39.501Z,0.00
2022-11-21T01:43:39.619Z,0.00
2022-11-21T01:44:39.473Z,0.00
2022-11-21T01:45:39.479Z,0.00
2022-11-21T01:46:39.511Z,0.00
2022-11-21T01:47:39.409Z,0.00
2022-11-21T01:48:39.408Z,0.00
2022-11-21T01:49:39.497Z,0.00
2022-11-21T01:50:39.424Z,0.00
2022-11-21T01:51:39.357Z,0.00
2022-11-21T01:52:39.343Z,0.00
2022-11-21T01:53:39.344Z,0.00
2022-11-21T01:54:39.389Z,0.00
2022-11-21T01:55:39.376Z,0.00
2022-11-21T01:56:39.331Z,0.00
2022-11-21T01:57:39.329Z,0.00
2022-11-21T01:58:39.429Z,0.00
2022-11-21T01:59:39.315Z,0.00
2022-11-21T02:00:39.422Z,0.00
2022-11-21T02:01:39.300Z,0.00
2022-11-21T02:26:52.528Z,0.00
2022-11-21T02:27:47.640Z,0.00
2022-11-21T02:28:47.638Z,0.00
2022-11-21T02:29:47.686Z,0.00
2022-11-21T02:30:47.613Z,0.00
2022-11-21T02:31:48.638Z,0.00
2022-11-21T02:32:47.638Z,0.00
2022-11-21T02:33:47.705Z,0.00
2022-11-21T02:34:47.791Z,0.00
2022-11-21T02:35:47.609Z,0.00
2022-11-21T02:36:47.609Z,0.00
2022-11-21T02:37:47.723Z,0.00
2022-11-21T02:38:47.618Z,0.00
2022-11-21T02:39:48.148Z,0.00
2022-11-21T02:40:47.604Z,0.00
2022-11-21T02:41:47.569Z,0.00
2022-11-21T02:42:52.417Z,0.00
2022-11-21T02:43:49.625Z,0.00
2022-11-21T02:44:47.709Z,0.00
2022-11-21T02:45:47.592Z,0.00
2022-11-21T02:46:47.591Z,0.00
2022-11-21T02:47:47.486Z,0.00
2022-11-21T02:48:47.550Z,0.00
2022-11-21T02:49:47.550Z,0.00
2022-11-21T02:50:48.100Z,0.00
2022-11-21T02:51:47.479Z,0.00
2022-11-21T02:52:47.575Z,0.00
2022-11-21T02:53:47.545Z,0.00
2022-11-21T02:54:47.473Z,0.00
2022-11-21T02:55:47.520Z,0.00
2022-11-21T02:56:47.517Z,0.00
2022-11-21T02:57:47.494Z,0.00
2022-11-21T02:58:47.476Z,0.00
2022-11-21T02:59:47.485Z,0.00
2022-11-21T03:00:47.495Z,0.00
2022-11-21T03:01:47.443Z,0.00
2022-11-21T03:02:47.507Z,0.00
2022-11-21T03:04:20.793Z,0.00
2022-11-21T03:04:47.455Z,0.00
2022-11-21T03:05:47.463Z,0.00
2022-11-21T03:06:48.141Z,0.00
2022-11-21T03:07:47.358Z,0.00
2022-11-21T03:08:48.309Z,0.00
2022-11-21T03:09:47.372Z,0.00
2022-11-21T03:10:48.370Z,0.00
2022-11-21T03:11:47.345Z,0.00
2022-11-21T03:12:47.317Z,0.00
2022-11-21T03:13:47.317Z,0.00
2022-11-21T03:14:47.291Z,0.00
2022-11-21T03:15:47.257Z,0.00
2022-11-21T03:16:47.333Z,0.00
2022-11-21T03:17:47.297Z,0.00
2022-11-21T03:18:47.306Z,0.00
2022-11-21T03:19:47.274Z,0.00
2022-11-21T03:20:47.276Z,0.00
2022-11-21T03:21:47.257Z,0.00
2022-11-21T03:22:47.221Z,0.00
2022-11-21T03:23:47.254Z,0.00
2022-11-21T03:24:47.198Z,0.00
2022-11-21T03:25:47.195Z,0.00
2022-11-21T03:26:47.190Z,0.00
2022-11-21T03:27:47.188Z,0.00
2022-11-21T03:28:47.243Z,0.00
2022-11-21T03:29:47.215Z,0.00
2022-11-21T03:30:47.190Z,0.00
2022-11-21T03:31:47.195Z,0.00
2022-11-21T03:32:47.156Z,0.00
2022-11-21T03:33:47.135Z,0.00
2022-11-21T03:34:47.173Z,0.00
2022-11-21T03:35:47.147Z,0.00
2022-11-21T03:36:47.196Z,0.00
2022-11-21T03:37:47.167Z,0.00
2022-11-21T03:38:47.116Z,0.00
2022-11-21T03:39:47.142Z,0.00
2022-11-21T03:40:47.125Z,0.00
2022-11-21T03:41:47.085Z,0.00
2022-11-21T03:42:47.078Z,0.00
2022-11-21T03:43:47.054Z,0.00
2022-11-21T03:44:47.068Z,0.00
2022-11-21T03:45:47.057Z,0.00
2022-11-21T03:46:47.038Z,0.00
2022-11-21T04:02:52.320Z,0.00
2022-11-21T04:03:52.318Z,0.00
2022-11-21T04:04:53.435Z,0.00
2022-11-21T04:06:25.330Z,0.00
2022-11-21T04:06:53.426Z,0.00
2022-11-21T04:07:53.404Z,0.00
2022-11-21T04:08:53.411Z,0.00
2022-11-21T04:09:53.386Z,0.00
2022-11-21T04:10:53.542Z,0.00
2022-11-21T04:11:53.389Z,0.00
2022-11-21T04:12:53.377Z,0.00
2022-11-21T04:13:53.392Z,0.00
2022-11-21T04:14:53.377Z,0.00
2022-11-21T04:15:53.376Z,0.00
2022-11-21T04:16:53.352Z,0.00
2022-11-21T04:17:53.349Z,0.00
2022-11-21T04:18:53.348Z,0.00
2022-11-21T04:19:53.380Z,0.00
2022-11-21T04:20:54.326Z,0.00
2022-11-21T04:21:53.342Z,0.00
2022-11-21T04:22:53.326Z,0.00
2022-11-21T04:23:53.376Z,0.00
2022-11-21T04:24:53.323Z,0.00
2022-11-21T04:25:53.323Z,0.00
2022-11-21T04:26:53.272Z,0.00
2022-11-21T04:27:53.267Z,0.00
2022-11-21T04:28:53.320Z,0.00
2022-11-21T04:29:53.289Z,0.00
2022-11-21T04:30:54.979Z,0.00
2022-11-21T04:31:54.261Z,0.00
2022-11-21T04:32:53.214Z,0.00
2022-11-21T04:33:53.272Z,0.00
2022-11-21T04:34:53.279Z,0.00
2022-11-21T04:35:53.277Z,0.00
2022-11-21T04:36:53.368Z,0.00
2022-11-21T04:37:53.221Z,0.00
2022-11-21T04:38:53.190Z,0.00
2022-11-21T04:39:53.167Z,0.00
2022-11-21T04:40:53.209Z,0.00
2022-11-21T04:41:53.153Z,0.00
2022-11-21T04:42:53.170Z,0.00
2022-11-21T04:43:53.121Z,0.00
2022-11-21T04:44:54.159Z,0.00
2022-11-21T04:45:53.135Z,0.00
2022-11-21T04:46:53.188Z,0.00
2022-11-21T04:47:53.087Z,0.00
2022-11-21T04:48:53.093Z,0.00
2022-11-21T04:49:53.097Z,0.00
2022-11-21T04:50:53.080Z,0.00
2022-11-21T04:51:53.117Z,0.00
2022-11-21T04:52:53.109Z,0.00
2022-11-21T04:53:53.075Z,0.00
2022-11-21T04:54:53.109Z,0.00
2022-11-21T04:55:53.042Z,0.00
2022-11-21T04:56:53.066Z,0.00
2022-11-21T04:57:53.048Z,0.00
2022-11-21T04:58:53.028Z,0.00
2022-11-21T04:59:53.004Z,0.00
2022-11-21T05:00:53.097Z,0.00
2022-11-21T05:01:53.043Z,0.00
2022-11-21T05:02:52.975Z,0.00
2022-11-21T05:03:52.990Z,0.00
2022-11-21T05:04:52.985Z,0.00
2022-11-21T05:05:52.959Z,0.00
2022-11-21T05:06:52.945Z,0.00
2022-11-21T05:07:52.949Z,0.00
2022-11-21T05:08:54.271Z,0.00
2022-11-21T05:09:53.933Z,0.00
2022-11-21T05:10:52.922Z,0.00
2022-11-21T05:12:39.472Z,0.00
2022-11-21T05:13:39.627Z,0.00
2022-11-21T05:14:39.478Z,0.00
2022-11-21T05:15:40.638Z,0.00
2022-11-21T05:16:41.607Z,0.00
2022-11-21T05:17:40.630Z,0.00
2022-11-21T05:18:40.631Z,0.00
2022-11-21T05:19:40.573Z,0.00
2022-11-21T05:20:40.609Z,0.00
2022-11-21T05:21:40.587Z,0.00
2022-11-21T05:22:40.569Z,0.00
2022-11-21T05:23:40.579Z,0.00
2022-11-21T05:24:40.566Z,0.00
2022-11-21T05:25:40.559Z,0.00
2022-11-21T05:26:40.536Z,0.00
2022-11-21T05:27:40.553Z,0.00
2022-11-21T05:28:40.509Z,0.00
2022-11-21T05:29:40.515Z,0.00
2022-11-21T05:30:40.491Z,0.00
2022-11-21T05:31:40.529Z,0.00
2022-11-21T05:32:40.513Z,0.00
2022-11-21T05:33:40.491Z,0.00
2022-11-21T05:34:40.474Z,0.00
2022-11-21T05:35:43.371Z,0.00
2022-11-21T05:36:41.472Z,0.00
2022-11-21T05:37:40.480Z,0.00
2022-11-21T05:38:40.429Z,0.00
2022-11-21T05:39:40.451Z,0.00
2022-11-21T05:40:40.442Z,0.00
2022-11-21T05:41:40.535Z,0.00
2022-11-21T05:42:40.423Z,0.00
2022-11-21T05:43:40.444Z,0.00
2022-11-21T05:44:40.446Z,0.00
2022-11-21T05:45:40.442Z,0.00
2022-11-21T05:46:40.367Z,0.00
2022-11-21T05:47:40.476Z,0.00
2022-11-21T05:48:40.434Z,0.00
2022-11-21T05:49:40.348Z,0.00
2022-11-21T05:50:40.335Z,0.00
2022-11-21T05:51:40.343Z,0.00
2022-11-21T05:52:40.343Z,0.00
2022-11-21T05:53:40.463Z,0.00
2022-11-21T05:54:44.925Z,0.00
2022-11-21T05:55:42.303Z,0.00
2022-11-21T05:56:40.345Z,0.00
2022-11-21T05:57:40.307Z,0.00
2022-11-21T05:58:40.306Z,0.00
2022-11-21T05:59:40.316Z,0.00
2022-11-21T06:00:40.275Z,0.00
2022-11-21T06:01:40.304Z,0.00
2022-11-21T06:02:40.319Z,0.00
2022-11-21T06:03:40.243Z,0.00
2022-11-21T06:04:40.282Z,0.00
2022-11-21T06:05:40.266Z,0.00
2022-11-21T06:06:40.234Z,0.00
2022-11-21T06:07:40.289Z,0.00
2022-11-21T06:08:40.214Z,0.00
2022-11-21T06:09:40.195Z,0.00
2022-11-21T06:10:40.180Z,0.00
2022-11-21T06:11:40.182Z,0.00
2022-11-21T06:12:40.201Z,0.00
2022-11-21T06:13:40.170Z,0.00
2022-11-21T06:14:40.155Z,0.00
2022-11-21T06:15:40.146Z,0.00
2022-11-21T06:16:40.188Z,0.00
2022-11-21T06:17:40.166Z,0.00
2022-11-21T06:18:40.118Z,0.00
2022-11-21T06:19:40.139Z,0.00
2022-11-21T06:20:40.156Z,0.00
2022-11-21T06:21:40.114Z,4.00
2022-11-21T06:22:40.164Z,4.00
2022-11-21T06:23:40.088Z,0.00
2022-11-21T06:24:40.110Z,4.00
2022-11-21T06:25:40.069Z,0.00
2022-11-21T06:26:40.102Z,4.00
2022-11-21T06:27:40.075Z,8.00
2022-11-21T06:28:40.107Z,4.00
2022-11-21T06:29:40.051Z,4.00
2022-11-21T06:30:40.036Z,8.00
2022-11-21T06:31:40.027Z,8.00
2022-11-21T06:32:40.129Z,8.00
2022-11-21T06:33:40.036Z,8.00
2022-11-21T06:34:40.003Z,8.00
2022-11-21T06:35:40.010Z,12.00
2022-11-21T06:36:40.012Z,16.00
2022-11-21T06:37:40.057Z,12.00
2022-11-21T06:38:39.976Z,12.00
2022-11-21T06:39:39.999Z,16.00
2022-11-21T06:40:39.955Z,16.00
2022-11-21T06:41:39.948Z,16.00
2022-11-21T06:42:39.942Z,20.00
2022-11-21T06:43:39.956Z,24.00
2022-11-21T06:44:39.949Z,24.00
2022-11-21T06:45:39.912Z,28.00
2022-11-21T06:46:39.903Z,28.00
2022-11-21T06:47:39.924Z,28.00
2022-11-21T06:48:39.888Z,32.00
2022-11-21T06:49:39.895Z,32.00
2022-11-21T06:50:39.888Z,40.00
2022-11-21T06:51:39.891Z,36.00
2022-11-21T06:52:39.861Z,40.00
2022-11-21T06:53:39.889Z,48.00
2022-11-21T06:54:39.905Z,48.00
2022-11-21T06:55:39.832Z,48.00
2022-11-21T06:56:39.850Z,52.00
2022-11-21T06:57:39.841Z,56.00
2022-11-21T06:58:39.829Z,60.00
2022-11-21T06:59:39.806Z,64.00
2022-11-21T07:00:39.814Z,64.00
2022-11-21T07:01:39.853Z,64.00
2022-11-21T07:02:39.849Z,68.00
2022-11-21T07:03:39.821Z,76.00
2022-11-21T07:04:39.815Z,80.00
2022-11-21T07:05:39.758Z,84.00
2022-11-21T07:06:39.782Z,84.00
2022-11-21T07:07:39.789Z,84.00
2022-11-21T07:08:39.804Z,84.00
2022-11-21T07:09:39.747Z,92.00
2022-11-21T07:10:42.531Z,104.00
2022-11-21T07:11:41.631Z,120.00
2022-11-21T07:12:39.712Z,124.00
2022-11-21T07:13:39.704Z,140.00
2022-11-21T07:14:39.779Z,148.00
2022-11-21T07:15:39.715Z,172.00
2022-11-21T07:16:39.719Z,208.00
2022-11-21T07:17:39.661Z,236.00
2022-11-21T07:18:39.660Z,244.00
2022-11-21T07:19:40.971Z,272.00
2022-11-21T07:20:40.641Z,304.00
2022-11-21T07:21:39.662Z,332.00
2022-11-21T07:22:39.637Z,360.00
2022-11-21T07:23:39.650Z,388.00
2022-11-21T07:24:39.666Z,396.00
2022-11-21T07:25:39.604Z,400.00
2022-11-21T07:26:39.682Z,412.00
2022-11-21T07:27:39.607Z,392.00
2022-11-21T07:28:39.634Z,388.00
2022-11-21T07:29:39.585Z,424.00
2022-11-21T07:30:39.561Z,500.00
2022-11-21T07:31:39.584Z,580.00
2022-11-21T07:32:39.556Z,616.00
2022-11-21T07:33:39.565Z,616.00
2022-11-21T07:34:39.556Z,584.00
2022-11-21T07:35:39.560Z,572.00
2022-11-21T07:36:39.555Z,580.00
2022-11-21T07:37:39.536Z,596.00
2022-11-21T07:38:39.504Z,604.00
2022-11-21T07:39:39.566Z,640.00
2022-11-21T07:40:39.498Z,684.00
2022-11-21T07:41:39.509Z,716.00
2022-11-21T07:42:39.486Z,716.00
2022-11-21T07:43:39.586Z,676.00
2022-11-21T07:44:39.476Z,616.00
2022-11-21T07:45:39.448Z,572.00
2022-11-21T07:46:39.450Z,536.00
2022-11-21T07:47:39.437Z,552.00
2022-11-21T07:48:39.445Z,572.00
2022-11-21T07:49:39.425Z,592.00
2022-11-21T07:50:39.417Z,624.00
2022-11-21T07:51:39.410Z,636.00
2022-11-21T07:52:39.416Z,660.00
2022-11-21T07:53:39.507Z,672.00
2022-11-21T07:54:39.409Z,676.00
2022-11-21T07:55:41.016Z,684.00
2022-11-21T07:56:40.360Z,680.00
2022-11-21T07:57:39.365Z,656.00
2022-11-21T07:58:39.399Z,668.00
2022-11-21T07:59:39.329Z,728.00
2022-11-21T08:00:39.361Z,784.00
2022-11-21T08:01:44.981Z,828.00
2022-11-21T08:02:41.316Z,852.00
2022-11-21T08:03:39.323Z,872.00
2022-11-21T08:04:39.330Z,884.00
2022-11-21T08:05:39.376Z,912.00
2022-11-21T08:06:39.293Z,912.00
2022-11-21T08:07:39.329Z,912.00
2022-11-21T08:08:39.284Z,916.00
2022-11-21T08:09:39.950Z,920.00
2022-11-21T08:10:40.335Z,940.00
2022-11-21T08:11:39.275Z,956.00
2022-11-21T08:12:39.240Z,984.00
2022-11-21T08:13:39.224Z,1000.00
2022-11-21T08:14:39.365Z,1032.00
2022-11-21T08:15:39.226Z,1048.00
2022-11-21T08:16:39.238Z,1068.00
2022-11-21T08:17:39.210Z,1084.00
2022-11-21T08:18:39.193Z,1104.00
2022-11-21T08:19:39.215Z,1124.00
2022-11-21T08:20:39.233Z,1144.00
2022-11-21T08:21:39.167Z,1144.00
2022-11-21T08:22:39.168Z,1140.00
2022-11-21T08:23:39.175Z,1144.00
2022-11-21T08:24:39.150Z,1144.00
2022-11-21T08:25:39.177Z,1136.00
2022-11-21T08:26:49.351Z,1124.00
2022-11-21T08:27:39.236Z,1132.00
2022-11-21T08:28:39.287Z,1144.00
2022-11-21T08:29:39.261Z,1152.00
2022-11-21T08:30:39.176Z,1164.00
2022-11-21T08:31:40.185Z,1208.00
2022-11-21T08:32:39.254Z,1272.00
2022-11-21T08:33:39.483Z,1344.00
2022-11-21T08:34:39.125Z,1380.00
2022-11-21T08:35:39.317Z,1428.00
2022-11-21T08:36:39.251Z,1472.00
2022-11-21T08:37:39.153Z,1500.00
2022-11-21T08:38:39.142Z,1504.00
2022-11-21T08:39:39.322Z,1516.00
2022-11-21T08:40:39.216Z,1516.00
2022-11-21T08:41:39.181Z,1460.00
2022-11-21T08:42:39.350Z,1420.00
2022-11-21T08:43:39.577Z,1424.00
2022-11-21T08:44:39.123Z,1464.00
2022-11-21T08:45:39.115Z,1416.00
2022-11-21T08:46:39.057Z,1404.00
2022-11-21T08:48:12.083Z,1492.00
2022-11-21T08:48:39.938Z,1432.00
2022-11-21T08:49:39.244Z,1268.00
2022-11-21T08:50:39.029Z,1136.00
2022-11-21T08:51:39.020Z,1152.00
2022-11-21T08:52:40.658Z,1304.00
2022-11-21T08:53:39.006Z,1408.00
2022-11-21T08:54:38.975Z,1392.00
2022-11-21T08:55:38.925Z,1408.00
2022-11-21T08:56:38.973Z,1524.00
2022-11-21T08:57:39.181Z,1624.00
2022-11-21T08:58:39.024Z,1700.00
2022-11-21T08:59:39.042Z,1632.00
2022-11-21T09:00:38.922Z,1560.00
2022-11-21T09:01:38.902Z,1584.00
2022-11-21T09:02:39.212Z,1628.00
2022-11-21T09:03:38.891Z,1636.00
2022-11-21T09:04:39.511Z,1560.00
2022-11-21T09:05:38.927Z,1488.00
2022-11-21T09:06:38.928Z,1544.00
2022-11-21T09:07:39.097Z,1616.00
2022-11-21T09:08:38.949Z,1716.00
2022-11-21T09:09:38.899Z,1816.00
2022-11-21T09:10:38.838Z,1872.00
2022-11-21T09:11:38.865Z,1836.00
2022-11-21T09:12:39.045Z,1792.00
2022-11-21T09:13:38.806Z,1752.00
2022-11-21T09:14:38.856Z,1736.00
2022-11-21T09:15:38.854Z,1812.00
2022-11-21T09:16:38.787Z,1856.00
2022-11-21T09:17:38.780Z,1892.00
2022-11-21T09:18:38.740Z,1948.00
2022-11-21T09:19:38.746Z,2028.00
2022-11-21T09:20:38.792Z,2032.00
2022-11-21T09:21:38.754Z,2056.00
2022-11-21T09:22:38.796Z,2020.00
2022-11-21T09:23:38.708Z,1968.00
2022-11-21T09:24:38.715Z,1948.00
2022-11-21T09:25:38.721Z,1940.00
2022-11-21T09:26:38.772Z,1892.00
2022-11-21T09:27:38.725Z,1808.00
2022-11-21T09:28:38.700Z,1856.00
2022-11-21T09:29:38.713Z,2072.00
2022-11-21T09:30:38.772Z,2120.00
2022-11-21T09:31:38.738Z,2120.00
2022-11-21T09:32:38.691Z,2208.00
2022-11-21T09:33:38.757Z,2216.00
2022-11-21T09:34:38.638Z,2248.00
2022-11-21T09:35:38.709Z,2356.00
2022-11-21T09:36:38.696Z,2460.00
2022-11-21T09:37:38.696Z,2600.00
2022-11-21T09:38:38.669Z,2772.00
2022-11-21T09:39:38.657Z,3016.00
2022-11-21T09:40:38.680Z,3352.00
2022-11-21T09:41:38.621Z,3664.00
2022-11-21T09:42:38.599Z,3792.00
2022-11-21T09:43:38.630Z,3832.00
2022-11-21T09:44:38.568Z,3900.00
2022-11-21T09:45:38.597Z,3908.00
2022-11-21T09:46:38.734Z,3980.00
2022-11-21T09:47:38.540Z,3936.00
2022-11-21T09:48:38.531Z,4048.00
2022-11-21T09:49:38.622Z,4420.00
2022-11-21T09:50:38.526Z,4912.00
2022-11-21T09:51:38.561Z,5628.00
2022-11-21T09:52:38.556Z,7888.00
2022-11-21T09:53:38.727Z,7704.00
2022-11-21T09:54:38.488Z,7284.00
2022-11-21T09:55:38.521Z,6920.00
2022-11-21T09:56:38.471Z,6492.00
2022-11-21T09:57:38.601Z,6228.00
2022-11-21T09:58:38.529Z,5924.00
2022-11-21T09:59:38.500Z,6244.00
2022-11-21T10:00:38.478Z,4820.00
2022-11-21T10:01:38.424Z,3868.00
2022-11-21T10:02:38.452Z,3328.00
2022-11-21T10:03:38.587Z,3048.00
2022-11-21T10:04:38.393Z,3004.00
2022-11-21T10:05:38.395Z,2880.00
2022-11-21T10:06:38.363Z,2756.00
2022-11-21T10:07:38.415Z,2720.00
2022-11-21T10:09:10.894Z,2856.00
2022-11-21T10:09:38.394Z,2896.00
2022-11-21T10:10:38.493Z,2748.00
2022-11-21T10:11:38.481Z,2596.00
2022-11-21T10:12:38.322Z,2520.00
2022-11-21T10:13:38.409Z,2544.00
2022-11-21T10:14:38.301Z,2656.00
2022-11-21T10:15:38.348Z,2688.00
2022-11-21T10:16:41.994Z,2924.00
2022-11-21T10:17:39.579Z,3048.00
2022-11-21T10:18:38.305Z,3124.00
2022-11-21T10:19:38.327Z,3004.00
2022-11-21T10:20:38.663Z,2824.00
2022-11-21T10:21:38.402Z,2668.00
2022-11-21T10:22:38.258Z,2408.00
2022-11-21T10:23:38.228Z,2276.00
2022-11-21T10:24:38.307Z,2216.00
2022-11-21T10:25:38.293Z,2260.00
2022-11-21T10:26:38.263Z,2236.00
2022-11-21T10:27:38.273Z,2304.00
2022-11-21T10:28:38.225Z,2260.00
2022-11-21T10:29:38.229Z,2012.00
2022-11-21T10:30:38.233Z,1760.00
2022-11-21T10:31:38.188Z,1516.00
2022-11-21T10:32:38.159Z,1300.00
2022-11-21T10:33:38.220Z,1252.00
2022-11-21T10:34:38.206Z,1276.00
2022-11-21T10:35:38.151Z,1412.00
2022-11-21T10:36:38.179Z,1732.00
2022-11-21T10:37:38.172Z,2320.00
2022-11-21T10:38:38.157Z,2888.00
2022-11-21T10:39:38.097Z,3336.00
2022-11-21T10:40:38.113Z,3624.00
2022-11-21T10:41:38.119Z,5068.00
2022-11-21T10:42:38.095Z,4604.00
2022-11-21T10:43:38.079Z,5032.00
2022-11-21T10:44:38.147Z,4080.00
2022-11-21T10:45:38.069Z,3700.00
2022-11-21T10:46:38.075Z,3680.00
2022-11-21T10:47:38.042Z,3684.00
2022-11-21T10:48:38.045Z,3700.00
2022-11-21T10:49:38.033Z,3588.00
2022-11-21T10:50:38.096Z,3472.00
2022-11-21T10:51:38.128Z,3328.00
2022-11-21T10:52:38.026Z,3212.00
2022-11-21T10:53:38.023Z,3120.00
2022-11-21T10:54:37.994Z,3036.00
2022-11-21T10:55:38.087Z,3040.00
2022-11-21T10:56:38.061Z,3084.00
2022-11-21T10:57:37.966Z,3152.00
2022-11-21T10:58:38.017Z,3244.00
2022-11-21T10:59:38.025Z,3412.00
2022-11-21T11:00:37.998Z,4040.00
2022-11-21T11:01:37.994Z,4672.00
2022-11-21T11:02:37.931Z,6216.00
2022-11-21T11:03:37.986Z,9296.00
2022-11-21T11:04:47.509Z,10816.00
2022-11-21T11:05:39.946Z,8984.00
2022-11-21T11:06:37.929Z,10476.00
2022-11-21T11:07:38.086Z,9368.00
2022-11-21T11:08:37.945Z,8248.00
2022-11-21T11:09:37.902Z,7844.00
2022-11-21T11:10:37.914Z,7976.00
2022-11-21T11:11:37.890Z,6788.00
2022-11-21T11:12:37.863Z,6788.00
2022-11-21T11:13:45.956Z,5640.00
2022-11-21T11:14:39.892Z,4632.00
2022-11-21T11:15:37.817Z,3840.00
2022-11-21T11:16:41.582Z,3348.00
2022-11-21T11:17:38.869Z,2872.00
2022-11-21T11:18:37.908Z,2528.00
2022-11-21T11:19:40.375Z,2352.00
2022-11-21T11:20:38.800Z,2332.00
2022-11-21T11:21:37.911Z,2452.00
2022-11-21T11:22:37.887Z,2532.00
2022-11-21T11:23:37.810Z,2632.00
2022-11-21T11:24:37.791Z,2760.00
2022-11-21T11:25:37.808Z,2872.00
2022-11-21T11:26:37.751Z,2880.00
2022-11-21T11:27:37.898Z,2908.00
2022-11-21T11:28:37.852Z,2844.00
2022-11-21T11:29:37.896Z,2628.00
2022-11-21T11:30:37.700Z,2400.00
2022-11-21T11:31:37.748Z,2184.00
2022-11-21T11:32:37.710Z,2012.00
2022-11-21T11:33:37.698Z,1812.00
2022-11-21T11:34:37.773Z,1684.00
2022-11-21T11:35:37.731Z,1724.00
2022-11-21T11:36:37.691Z,1808.00
2022-11-21T11:37:40.709Z,1852.00
2022-11-21T11:38:38.648Z,1852.00
2022-11-21T11:39:37.676Z,1844.00
2022-11-21T11:40:37.659Z,1784.00
2022-11-21T11:41:37.629Z,1724.00
2022-11-21T11:42:37.655Z,1700.00
2022-11-21T11:43:37.697Z,1776.00
2022-11-21T11:44:37.619Z,1916.00
2022-11-21T11:45:37.622Z,1880.00
2022-11-21T11:46:37.608Z,2008.00
2022-11-21T11:47:37.596Z,2280.00
2022-11-21T11:48:50.462Z,2644.00
2022-11-21T11:49:39.576Z,2972.00
2022-11-21T11:50:37.565Z,3152.00
2022-11-21T11:51:37.642Z,3144.00
2022-11-21T11:52:37.546Z,3052.00
2022-11-21T11:53:37.620Z,3036.00
2022-11-21T11:54:37.531Z,3264.00
2022-11-21T11:55:37.535Z,3428.00
2022-11-21T11:56:37.530Z,3680.00
2022-11-21T11:57:37.508Z,3972.00
2022-11-21T11:58:37.575Z,4328.00
2022-11-21T11:59:37.544Z,4616.00
2022-11-21T12:00:37.479Z,5024.00
2022-11-21T12:01:37.504Z,5288.00
2022-11-21T12:02:37.591Z,5136.00
2022-11-21T12:03:38.365Z,4812.00
2022-11-21T12:04:37.491Z,4700.00
2022-11-21T12:05:37.451Z,4448.00
2022-11-21T12:07:26.145Z,4184.00
2022-11-21T12:08:39.092Z,3976.00
2022-11-21T12:08:41.762Z,3680.00
2022-11-21T12:09:38.503Z,3416.00
2022-11-21T12:10:37.402Z,3124.00
2022-11-21T12:11:37.413Z,2860.00
2022-11-21T12:12:37.395Z,2664.00
2022-11-21T12:13:37.402Z,2512.00
2022-11-21T12:14:37.421Z,2428.00
2022-11-21T12:15:37.448Z,2400.00
2022-11-21T12:16:37.383Z,2464.00
2022-11-21T12:17:37.389Z,2480.00
2022-11-21T12:18:37.383Z,2528.00
2022-11-21T12:19:37.367Z,2712.00
2022-11-21T12:20:37.337Z,2936.00
2022-11-21T12:21:38.332Z,3296.00
2022-11-21T12:22:37.437Z,3740.00
2022-11-21T12:23:37.309Z,4056.00
2022-11-21T12:24:42.769Z,4036.00
2022-11-21T12:25:40.822Z,3828.00
2022-11-21T12:26:37.398Z,3492.00
2022-11-21T12:27:37.297Z,3276.00
2022-11-21T12:28:37.308Z,3200.00
2022-11-21T12:29:37.299Z,3192.00
2022-11-21T12:30:37.251Z,3196.00
2022-11-21T12:31:37.309Z,3112.00
2022-11-21T12:32:37.274Z,2964.00
2022-11-21T12:33:37.227Z,2876.00
2022-11-21T12:34:37.260Z,2904.00
2022-11-21T12:35:37.282Z,2976.00
2022-11-21T12:36:37.246Z,2996.00
2022-11-21T12:37:37.761Z,3020.00
2022-11-21T12:38:41.943Z,2940.00
2022-11-21T12:39:39.218Z,2836.00
2022-11-21T12:40:37.179Z,2852.00
2022-11-21T12:41:37.293Z,2856.00
2022-11-21T12:42:37.191Z,2916.00
2022-11-21T12:43:37.876Z,3256.00
2022-11-21T12:44:37.161Z,3936.00
2022-11-21T12:45:37.198Z,4972.00
2022-11-21T12:46:37.122Z,3512.00
2022-11-21T12:47:37.128Z,3568.00
2022-11-21T12:48:37.239Z,3580.00
2022-11-21T12:49:37.189Z,3628.00
2022-11-21T12:50:37.089Z,3624.00
2022-11-21T12:51:37.144Z,3556.00
2022-11-21T12:52:37.138Z,3484.00
2022-11-21T12:53:37.153Z,3460.00
2022-11-21T12:54:37.085Z,3444.00
2022-11-21T12:55:37.093Z,3460.00
2022-11-21T12:56:38.106Z,3532.00
2022-11-21T12:57:37.041Z,3660.00
2022-11-21T12:58:37.088Z,3860.00
2022-11-21T12:59:37.099Z,4068.00
2022-11-21T13:00:37.022Z,5572.00
2022-11-21T13:01:37.026Z,7088.00
2022-11-21T13:02:36.988Z,7260.00
2022-11-21T13:03:36.962Z,7300.00
2022-11-21T13:04:37.023Z,7232.00
2022-11-21T13:05:37.006Z,6972.00
2022-11-21T13:06:37.042Z,6676.00
2022-11-21T13:07:37.047Z,5832.00
2022-11-21T13:08:37.016Z,6256.00
2022-11-21T13:09:36.964Z,6296.00
2022-11-21T13:10:37.062Z,6028.00
2022-11-21T13:11:36.944Z,5772.00
2022-11-21T13:12:36.919Z,5392.00
2022-11-21T13:13:36.933Z,5176.00
2022-11-21T13:14:36.916Z,3836.00
2022-11-21T13:15:38.646Z,3552.00
2022-11-21T13:16:37.898Z,3560.00
2022-11-21T13:17:36.908Z,4312.00
2022-11-21T13:18:36.904Z,3640.00
2022-11-21T13:19:38.024Z,3352.00
2022-11-21T13:20:36.877Z,3496.00
2022-11-21T13:21:40.720Z,3740.00
2022-11-21T13:22:38.783Z,2908.00